aviador You're here:

MMMD Decoded Metar

MERIDA in MEXICO
Report Time2018-07-22 23:47:00
UTC Time2018-07-23 00:03:09
Flight Rules vfr VFR
Wind020° at 10 kt
W.Decomp.*RWY 36: 9.5 kt HW 3.1 kt RCW
RWY 10: 1.4 kt HW 9.9 kt LCW
W.Rank020° ranks 13
Current wind is above 020° avg. (7.6)
Visibility9999 m
Phenomena:N/A
Clouds:Scattered 300 Hf
Expected CloudBase > 4,000 ft AGL from Temp-Dew spread
CeilingNone
Temp31°C (ISA +16)
Dew Point21°C (55% RH)
Heat Index33.7°C
QNH1014 hPa
Density Alt2,165 ft
Elevation33 ft
Report Wrong Elevation
Raw Report
MMMD 222347Z 02010KT 7SM SCT300 31/21 A2994 RMK SLP140 52006 965
8/008=

Extra information for MMMD:More info

Metar Taf Metar & Taf Last 4 Metars F.Rules Stats Wind Profile Meteogram Temp Stats Airport Information Weather charts Add Link Nearby VenuesMetar ALERT Operation Metar Decoded Social comments